sensor_id;sensor_type;location;lat;lon;timestamp;P1;durP1;ratioP1;P2;durP2;ratioP2
11588;SDS011;5850;51.360;12.362;2024-01-11T00:02:06;79.75;;;44.83;;
11588;SDS011;5850;51.360;12.362;2024-01-11T00:04:34;83.10;;;45.13;;
11588;SDS011;5850;51.360;12.362;2024-01-11T00:07:02;91.18;;;46.45;;
11588;SDS011;5850;51.360;12.362;2024-01-11T00:09:30;79.93;;;43.55;;
11588;SDS011;5850;51.360;12.362;2024-01-11T00:11:58;77.65;;;45.05;;
11588;SDS011;5850;51.360;12.362;2024-01-11T00:14:27;78.35;;;44.75;;
11588;SDS011;5850;51.360;12.362;2024-01-11T00:16:55;82.32;;;45.17;;
11588;SDS011;5850;51.360;12.362;2024-01-11T00:19:24;78.15;;;42.17;;
11588;SDS011;5850;51.360;12.362;2024-01-11T00:21:52;80.55;;;44.38;;
11588;SDS011;5850;51.360;12.362;2024-01-11T00:24:20;82.05;;;44.55;;
11588;SDS011;5850;51.360;12.362;2024-01-11T00:26:48;82.45;;;46.80;;
11588;SDS011;5850;51.360;12.362;2024-01-11T00:29:17;83.05;;;44.95;;
11588;SDS011;5850;51.360;12.362;2024-01-11T00:31:45;74.38;;;45.15;;
11588;SDS011;5850;51.360;12.362;2024-01-11T00:34:13;82.53;;;48.67;;
11588;SDS011;5850;51.360;12.362;2024-01-11T00:36:41;81.82;;;47.90;;
11588;SDS011;5850;51.360;12.362;2024-01-11T00:39:09;80.30;;;49.00;;
11588;SDS011;5850;51.360;12.362;2024-01-11T00:41:38;78.97;;;45.90;;
11588;SDS011;5850;51.360;12.362;2024-01-11T00:44:06;83.65;;;47.10;;
11588;SDS011;5850;51.360;12.362;2024-01-11T00:46:34;79.68;;;47.45;;
11588;SDS011;5850;51.360;12.362;2024-01-11T00:49:04;84.38;;;45.72;;
11588;SDS011;5850;51.360;12.362;2024-01-11T00:51:32;85.43;;;49.42;;
11588;SDS011;5850;51.360;12.362;2024-01-11T00:54:00;85.95;;;47.20;;
11588;SDS011;5850;51.360;12.362;2024-01-11T00:56:29;87.72;;;47.80;;
11588;SDS011;5850;51.360;12.362;2024-01-11T00:58:57;81.25;;;47.03;;
11588;SDS011;5850;51.360;12.362;2024-01-11T01:01:26;89.10;;;48.40;;
11588;SDS011;5850;51.360;12.362;2024-01-11T01:03:54;80.70;;;46.50;;
11588;SDS011;5850;51.360;12.362;2024-01-11T01:06:22;82.15;;;46.03;;
11588;SDS011;5850;51.360;12.362;2024-01-11T01:08:51;82.75;;;45.53;;
11588;SDS011;5850;51.360;12.362;2024-01-11T01:11:19;87.57;;;49.70;;
11588;SDS011;5850;51.360;12.362;2024-01-11T01:13:47;82.20;;;45.63;;
11588;SDS011;5850;51.360;12.362;2024-01-11T01:16:15;86.85;;;46.05;;
11588;SDS011;5850;51.360;12.362;2024-01-11T01:18:43;81.10;;;45.15;;
11588;SDS011;5850;51.360;12.362;2024-01-11T01:21:12;89.47;;;49.00;;
11588;SDS011;5850;51.360;12.362;2024-01-11T01:23:40;83.85;;;47.58;;
11588;SDS011;5850;51.360;12.362;2024-01-11T01:26:08;80.18;;;48.97;;
11588;SDS011;5850;51.360;12.362;2024-01-11T01:28:36;88.70;;;50.92;;
11588;SDS011;5850;51.360;12.362;2024-01-11T01:31:06;93.05;;;49.95;;
11588;SDS011;5850;51.360;12.362;2024-01-11T01:33:34;87.32;;;50.17;;
11588;SDS011;5850;51.360;12.362;2024-01-11T01:36:03;86.65;;;52.63;;
11588;SDS011;5850;51.360;12.362;2024-01-11T01:38:31;85.60;;;49.78;;
11588;SDS011;5850;51.360;12.362;2024-01-11T01:40:59;87.10;;;49.15;;
11588;SDS011;5850;51.360;12.362;2024-01-11T01:43:27;90.22;;;48.90;;
11588;SDS011;5850;51.360;12.362;2024-01-11T01:45:55;89.35;;;50.08;;
11588;SDS011;5850;51.360;12.362;2024-01-11T01:48:24;90.00;;;47.95;;
11588;SDS011;5850;51.360;12.362;2024-01-11T01:50:52;84.15;;;45.80;;
11588;SDS011;5850;51.360;12.362;2024-01-11T01:53:21;80.32;;;46.60;;
11588;SDS011;5850;51.360;12.362;2024-01-11T01:55:50;82.78;;;46.17;;
11588;SDS011;5850;51.360;12.362;2024-01-11T01:58:19;89.55;;;49.85;;
11588;SDS011;5850;51.360;12.362;2024-01-11T02:00:49;80.47;;;44.65;;
11588;SDS011;5850;51.360;12.362;2024-01-11T02:03:18;89.40;;;48.78;;
11588;SDS011;5850;51.360;12.362;2024-01-11T02:05:47;86.55;;;47.92;;
11588;SDS011;5850;51.360;12.362;2024-01-11T02:08:16;78.70;;;47.20;;
11588;SDS011;5850;51.360;12.362;2024-01-11T02:10:46;90.47;;;51.42;;
11588;SDS011;5850;51.360;12.362;2024-01-11T02:13:14;82.40;;;46.92;;
11588;SDS011;5850;51.360;12.362;2024-01-11T02:15:43;82.55;;;48.20;;
11588;SDS011;5850;51.360;12.362;2024-01-11T02:18:12;89.13;;;49.38;;
11588;SDS011;5850;51.360;12.362;2024-01-11T02:20:40;89.05;;;48.95;;
11588;SDS011;5850;51.360;12.362;2024-01-11T02:23:10;77.28;;;45.70;;
11588;SDS011;5850;51.360;12.362;2024-01-11T02:25:41;82.85;;;47.47;;
11588;SDS011;5850;51.360;12.362;2024-01-11T02:28:09;84.40;;;51.53;;
11588;SDS011;5850;51.360;12.362;2024-01-11T02:30:38;91.28;;;51.47;;
11588;SDS011;5850;51.360;12.362;2024-01-11T02:33:06;83.55;;;48.13;;
11588;SDS011;5850;51.360;12.362;2024-01-11T02:35:35;86.30;;;48.72;;
11588;SDS011;5850;51.360;12.362;2024-01-11T02:38:09;81.30;;;49.55;;
11588;SDS011;5850;51.360;12.362;2024-01-11T02:40:37;82.53;;;45.58;;
11588;SDS011;5850;51.360;12.362;2024-01-11T02:43:09;81.00;;;45.10;;
11588;SDS011;5850;51.360;12.362;2024-01-11T02:45:37;80.68;;;48.40;;
11588;SDS011;5850;51.360;12.362;2024-01-11T02:48:05;84.88;;;49.03;;
11588;SDS011;5850;51.360;12.362;2024-01-11T02:50:34;92.40;;;51.05;;
11588;SDS011;5850;51.360;12.362;2024-01-11T02:53:02;89.75;;;53.83;;
11588;SDS011;5850;51.360;12.362;2024-01-11T02:55:30;91.50;;;53.28;;
11588;SDS011;5850;51.360;12.362;2024-01-11T02:57:58;89.85;;;48.35;;
11588;SDS011;5850;51.360;12.362;2024-01-11T03:00:26;82.20;;;49.75;;
11588;SDS011;5850;51.360;12.362;2024-01-11T03:02:54;86.00;;;51.28;;
11588;SDS011;5850;51.360;12.362;2024-01-11T03:05:23;89.47;;;51.72;;
11588;SDS011;5850;51.360;12.362;2024-01-11T03:07:51;84.28;;;48.60;;
11588;SDS011;5850;51.360;12.362;2024-01-11T03:10:19;83.53;;;48.85;;
11588;SDS011;5850;51.360;12.362;2024-01-11T03:12:48;84.50;;;46.78;;
11588;SDS011;5850;51.360;12.362;2024-01-11T03:15:16;86.20;;;47.15;;
11588;SDS011;5850;51.360;12.362;2024-01-11T03:17:44;88.72;;;52.42;;
11588;SDS011;5850;51.360;12.362;2024-01-11T03:20:12;87.18;;;51.38;;
11588;SDS011;5850;51.360;12.362;2024-01-11T03:22:45;91.32;;;49.78;;
11588;SDS011;5850;51.360;12.362;2024-01-11T03:25:14;82.90;;;48.72;;
11588;SDS011;5850;51.360;12.362;2024-01-11T03:27:42;79.90;;;48.10;;
11588;SDS011;5850;51.360;12.362;2024-01-11T03:30:10;85.38;;;49.42;;
11588;SDS011;5850;51.360;12.362;2024-01-11T03:32:38;84.97;;;49.95;;
11588;SDS011;5850;51.360;12.362;2024-01-11T03:35:07;84.65;;;47.47;;
11588;SDS011;5850;51.360;12.362;2024-01-11T03:37:35;81.07;;;48.63;;
11588;SDS011;5850;51.360;12.362;2024-01-11T03:40:04;84.38;;;48.38;;
11588;SDS011;5850;51.360;12.362;2024-01-11T03:42:32;87.40;;;49.30;;
11588;SDS011;5850;51.360;12.362;2024-01-11T03:45:00;88.53;;;49.70;;
11588;SDS011;5850;51.360;12.362;2024-01-11T03:47:29;95.28;;;50.85;;
11588;SDS011;5850;51.360;12.362;2024-01-11T03:49:57;87.47;;;49.20;;
11588;SDS011;5850;51.360;12.362;2024-01-11T03:52:25;82.18;;;50.35;;
11588;SDS011;5850;51.360;12.362;2024-01-11T03:54:54;82.53;;;48.60;;
11588;SDS011;5850;51.360;12.362;2024-01-11T03:57:22;86.15;;;49.55;;
11588;SDS011;5850;51.360;12.362;2024-01-11T03:59:50;90.55;;;49.55;;
11588;SDS011;5850;51.360;12.362;2024-01-11T04:02:18;79.85;;;50.17;;
11588;SDS011;5850;51.360;12.362;2024-01-11T04:04:46;81.70;;;49.55;;
11588;SDS011;5850;51.360;12.362;2024-01-11T04:07:14;87.07;;;50.83;;
11588;SDS011;5850;51.360;12.362;2024-01-11T04:09:43;88.45;;;50.60;;
11588;SDS011;5850;51.360;12.362;2024-01-11T04:12:11;84.68;;;49.97;;
11588;SDS011;5850;51.360;12.362;2024-01-11T04:14:39;86.93;;;48.38;;
11588;SDS011;5850;51.360;12.362;2024-01-11T04:17:07;83.50;;;47.58;;
11588;SDS011;5850;51.360;12.362;2024-01-11T04:19:35;88.88;;;50.50;;
11588;SDS011;5850;51.360;12.362;2024-01-11T04:22:03;87.57;;;50.03;;
11588;SDS011;5850;51.360;12.362;2024-01-11T04:24:32;83.00;;;48.35;;
11588;SDS011;5850;51.360;12.362;2024-01-11T04:27:00;81.95;;;47.38;;
11588;SDS011;5850;51.360;12.362;2024-01-11T04:29:28;86.00;;;50.65;;
11588;SDS011;5850;51.360;12.362;2024-01-11T04:31:56;88.72;;;51.40;;
11588;SDS011;5850;51.360;12.362;2024-01-11T04:34:25;83.28;;;48.17;;
11588;SDS011;5850;51.360;12.362;2024-01-11T04:36:53;79.05;;;47.60;;
11588;SDS011;5850;51.360;12.362;2024-01-11T04:39:21;87.10;;;52.17;;
11588;SDS011;5850;51.360;12.362;2024-01-11T04:41:49;87.75;;;50.10;;
11588;SDS011;5850;51.360;12.362;2024-01-11T04:44:17;88.13;;;50.08;;
11588;SDS011;5850;51.360;12.362;2024-01-11T04:46:45;77.43;;;47.20;;
11588;SDS011;5850;51.360;12.362;2024-01-11T04:49:13;77.03;;;46.10;;
11588;SDS011;5850;51.360;12.362;2024-01-11T04:51:42;85.57;;;48.20;;
11588;SDS011;5850;51.360;12.362;2024-01-11T04:54:10;88.32;;;48.83;;
11588;SDS011;5850;51.360;12.362;2024-01-11T04:56:38;84.28;;;46.60;;
11588;SDS011;5850;51.360;12.362;2024-01-11T04:59:06;80.53;;;47.45;;
11588;SDS011;5850;51.360;12.362;2024-01-11T05:01:34;90.95;;;47.97;;
11588;SDS011;5850;51.360;12.362;2024-01-11T05:04:02;85.65;;;49.80;;
11588;SDS011;5850;51.360;12.362;2024-01-11T05:06:31;80.07;;;45.35;;
11588;SDS011;5850;51.360;12.362;2024-01-11T05:08:59;82.53;;;47.67;;
11588;SDS011;5850;51.360;12.362;2024-01-11T05:11:27;80.07;;;47.00;;
11588;SDS011;5850;51.360;12.362;2024-01-11T05:13:55;84.65;;;47.03;;
11588;SDS011;5850;51.360;12.362;2024-01-11T05:16:24;80.43;;;47.88;;
11588;SDS011;5850;51.360;12.362;2024-01-11T05:18:56;84.05;;;47.55;;
11588;SDS011;5850;51.360;12.362;2024-01-11T05:21:25;82.85;;;49.50;;
11588;SDS011;5850;51.360;12.362;2024-01-11T05:23:53;83.88;;;48.40;;
11588;SDS011;5850;51.360;12.362;2024-01-11T05:26:21;82.32;;;49.53;;
11588;SDS011;5850;51.360;12.362;2024-01-11T05:28:48;91.15;;;50.90;;
11588;SDS011;5850;51.360;12.362;2024-01-11T05:31:16;81.75;;;49.75;;
11588;SDS011;5850;51.360;12.362;2024-01-11T05:33:45;82.75;;;48.35;;
11588;SDS011;5850;51.360;12.362;2024-01-11T05:36:14;82.32;;;49.00;;
11588;SDS011;5850;51.360;12.362;2024-01-11T05:38:42;83.93;;;49.17;;
11588;SDS011;5850;51.360;12.362;2024-01-11T05:41:10;86.10;;;50.70;;
11588;SDS011;5850;51.360;12.362;2024-01-11T05:43:39;82.22;;;49.72;;
11588;SDS011;5850;51.360;12.362;2024-01-11T05:46:08;84.18;;;49.60;;
11588;SDS011;5850;51.360;12.362;2024-01-11T05:48:36;81.57;;;48.53;;
11588;SDS011;5850;51.360;12.362;2024-01-11T05:51:05;78.68;;;45.58;;
11588;SDS011;5850;51.360;12.362;2024-01-11T05:53:33;77.85;;;45.97;;
11588;SDS011;5850;51.360;12.362;2024-01-11T05:56:06;78.32;;;47.10;;
11588;SDS011;5850;51.360;12.362;2024-01-11T05:58:38;82.97;;;47.70;;
11588;SDS011;5850;51.360;12.362;2024-01-11T06:01:06;82.18;;;47.78;;
11588;SDS011;5850;51.360;12.362;2024-01-11T06:03:35;84.05;;;49.03;;
11588;SDS011;5850;51.360;12.362;2024-01-11T06:06:04;78.18;;;47.47;;
11588;SDS011;5850;51.360;12.362;2024-01-11T06:08:32;77.95;;;46.92;;
11588;SDS011;5850;51.360;12.362;2024-01-11T06:11:00;79.63;;;46.67;;
11588;SDS011;5850;51.360;12.362;2024-01-11T06:13:30;82.72;;;46.72;;
11588;SDS011;5850;51.360;12.362;2024-01-11T06:15:58;90.40;;;48.20;;
11588;SDS011;5850;51.360;12.362;2024-01-11T06:18:26;79.30;;;43.92;;
11588;SDS011;5850;51.360;12.362;2024-01-11T06:20:54;77.50;;;44.42;;
11588;SDS011;5850;51.360;12.362;2024-01-11T06:23:24;77.90;;;44.78;;
11588;SDS011;5850;51.360;12.362;2024-01-11T06:25:52;82.38;;;46.75;;
11588;SDS011;5850;51.360;12.362;2024-01-11T06:28:20;88.85;;;48.88;;
11588;SDS011;5850;51.360;12.362;2024-01-11T06:30:52;84.65;;;46.40;;
11588;SDS011;5850;51.360;12.362;2024-01-11T06:33:22;93.00;;;49.33;;
11588;SDS011;5850;51.360;12.362;2024-01-11T06:35:53;88.28;;;50.35;;
11588;SDS011;5850;51.360;12.362;2024-01-11T06:38:22;83.57;;;46.47;;
11588;SDS011;5850;51.360;12.362;2024-01-11T06:40:50;87.25;;;45.38;;
11588;SDS011;5850;51.360;12.362;2024-01-11T06:43:18;84.97;;;46.58;;
11588;SDS011;5850;51.360;12.362;2024-01-11T06:45:49;82.28;;;47.08;;
11588;SDS011;5850;51.360;12.362;2024-01-11T06:48:16;81.55;;;45.95;;
11588;SDS011;5850;51.360;12.362;2024-01-11T06:50:44;84.60;;;46.47;;
11588;SDS011;5850;51.360;12.362;2024-01-11T06:53:13;85.82;;;45.88;;
11588;SDS011;5850;51.360;12.362;2024-01-11T06:55:41;85.90;;;47.83;;
11588;SDS011;5850;51.360;12.362;2024-01-11T06:58:10;85.65;;;46.42;;
11588;SDS011;5850;51.360;12.362;2024-01-11T07:00:38;84.68;;;48.70;;
11588;SDS011;5850;51.360;12.362;2024-01-11T07:03:09;85.05;;;48.72;;
11588;SDS011;5850;51.360;12.362;2024-01-11T07:05:38;78.38;;;46.30;;
11588;SDS011;5850;51.360;12.362;2024-01-11T07:08:06;81.60;;;47.13;;
11588;SDS011;5850;51.360;12.362;2024-01-11T07:10:34;87.78;;;46.65;;
11588;SDS011;5850;51.360;12.362;2024-01-11T07:13:03;92.97;;;49.53;;
11588;SDS011;5850;51.360;12.362;2024-01-11T07:15:32;83.53;;;45.28;;
11588;SDS011;5850;51.360;12.362;2024-01-11T07:18:01;86.60;;;46.53;;
11588;SDS011;5850;51.360;12.362;2024-01-11T07:20:30;92.95;;;49.92;;
11588;SDS011;5850;51.360;12.362;2024-01-11T07:22:58;89.68;;;47.55;;
11588;SDS011;5850;51.360;12.362;2024-01-11T07:25:27;88.32;;;47.78;;
11588;SDS011;5850;51.360;12.362;2024-01-11T07:27:55;85.13;;;45.47;;
11588;SDS011;5850;51.360;12.362;2024-01-11T07:30:23;89.03;;;51.60;;
11588;SDS011;5850;51.360;12.362;2024-01-11T07:32:51;86.38;;;48.25;;
11588;SDS011;5850;51.360;12.362;2024-01-11T07:35:20;86.07;;;47.85;;
11588;SDS011;5850;51.360;12.362;2024-01-11T07:37:57;89.35;;;49.22;;
11588;SDS011;5850;51.360;12.362;2024-01-11T07:40:25;95.28;;;50.00;;
11588;SDS011;5850;51.360;12.362;2024-01-11T07:42:57;97.45;;;51.47;;
11588;SDS011;5850;51.360;12.362;2024-01-11T07:45:25;89.85;;;50.63;;
11588;SDS011;5850;51.360;12.362;2024-01-11T07:47:54;92.78;;;48.80;;
11588;SDS011;5850;51.360;12.362;2024-01-11T07:50:22;89.25;;;50.72;;
11588;SDS011;5850;51.360;12.362;2024-01-11T07:52:50;81.15;;;45.33;;
11588;SDS011;5850;51.360;12.362;2024-01-11T07:55:18;87.38;;;48.70;;
11588;SDS011;5850;51.360;12.362;2024-01-11T07:57:49;91.07;;;48.35;;
11588;SDS011;5850;51.360;12.362;2024-01-11T08:00:18;94.07;;;50.95;;
11588;SDS011;5850;51.360;12.362;2024-01-11T08:02:46;93.05;;;47.67;;
11588;SDS011;5850;51.360;12.362;2024-01-11T08:05:14;82.20;;;48.10;;
11588;SDS011;5850;51.360;12.362;2024-01-11T08:07:45;92.18;;;50.25;;
11588;SDS011;5850;51.360;12.362;2024-01-11T08:10:13;91.78;;;51.50;;
11588;SDS011;5850;51.360;12.362;2024-01-11T08:12:41;90.50;;;50.75;;
11588;SDS011;5850;51.360;12.362;2024-01-11T08:15:09;96.43;;;49.53;;
11588;SDS011;5850;51.360;12.362;2024-01-11T08:17:39;88.03;;;48.38;;
11588;SDS011;5850;51.360;12.362;2024-01-11T08:20:13;89.10;;;49.22;;
11588;SDS011;5850;51.360;12.362;2024-01-11T08:22:42;90.55;;;48.28;;
11588;SDS011;5850;51.360;12.362;2024-01-11T08:25:12;82.82;;;48.25;;
11588;SDS011;5850;51.360;12.362;2024-01-11T08:27:40;88.47;;;49.03;;
11588;SDS011;5850;51.360;12.362;2024-01-11T08:30:09;89.57;;;50.42;;
11588;SDS011;5850;51.360;12.362;2024-01-11T08:32:39;82.57;;;47.60;;
11588;SDS011;5850;51.360;12.362;2024-01-11T08:35:11;89.20;;;52.90;;
11588;SDS011;5850;51.360;12.362;2024-01-11T08:37:39;88.75;;;51.78;;
11588;SDS011;5850;51.360;12.362;2024-01-11T08:40:07;89.88;;;50.88;;
11588;SDS011;5850;51.360;12.362;2024-01-11T08:42:37;92.82;;;50.55;;
11588;SDS011;5850;51.360;12.362;2024-01-11T08:45:08;92.10;;;49.53;;
11588;SDS011;5850;51.360;12.362;2024-01-11T08:47:44;86.15;;;48.45;;
11588;SDS011;5850;51.360;12.362;2024-01-11T08:50:13;91.50;;;52.58;;
11588;SDS011;5850;51.360;12.362;2024-01-11T08:52:44;83.22;;;50.22;;
11588;SDS011;5850;51.360;12.362;2024-01-11T08:55:13;87.35;;;49.53;;
11588;SDS011;5850;51.360;12.362;2024-01-11T08:57:41;88.57;;;51.47;;
11588;SDS011;5850;51.360;12.362;2024-01-11T09:00:09;88.15;;;50.50;;
11588;SDS011;5850;51.360;12.362;2024-01-11T09:02:37;86.97;;;50.75;;
11588;SDS011;5850;51.360;12.362;2024-01-11T09:05:05;89.13;;;52.22;;
11588;SDS011;5850;51.360;12.362;2024-01-11T09:07:35;85.78;;;49.55;;
11588;SDS011;5850;51.360;12.362;2024-01-11T09:10:03;84.75;;;50.60;;
11588;SDS011;5850;51.360;12.362;2024-01-11T09:12:31;86.63;;;49.42;;
11588;SDS011;5850;51.360;12.362;2024-01-11T09:15:00;86.70;;;49.92;;
11588;SDS011;5850;51.360;12.362;2024-01-11T09:17:28;89.10;;;51.78;;
11588;SDS011;5850;51.360;12.362;2024-01-11T09:19:56;91.28;;;51.25;;
11588;SDS011;5850;51.360;12.362;2024-01-11T09:22:24;92.10;;;50.90;;
11588;SDS011;5850;51.360;12.362;2024-01-11T09:24:54;92.07;;;51.75;;
11588;SDS011;5850;51.360;12.362;2024-01-11T09:27:23;86.18;;;50.25;;
11588;SDS011;5850;51.360;12.362;2024-01-11T09:29:51;88.20;;;49.95;;
11588;SDS011;5850;51.360;12.362;2024-01-11T09:32:22;87.50;;;48.88;;
11588;SDS011;5850;51.360;12.362;2024-01-11T09:34:52;84.65;;;48.97;;
11588;SDS011;5850;51.360;12.362;2024-01-11T09:37:19;94.00;;;50.97;;
11588;SDS011;5850;51.360;12.362;2024-01-11T09:39:47;90.90;;;50.53;;
11588;SDS011;5850;51.360;12.362;2024-01-11T09:42:15;83.70;;;49.80;;
11588;SDS011;5850;51.360;12.362;2024-01-11T09:44:43;90.53;;;49.38;;
11588;SDS011;5850;51.360;12.362;2024-01-11T09:47:11;85.25;;;47.40;;
11588;SDS011;5850;51.360;12.362;2024-01-11T09:49:45;87.45;;;49.83;;
11588;SDS011;5850;51.360;12.362;2024-01-11T09:52:17;84.20;;;47.33;;
11588;SDS011;5850;51.360;12.362;2024-01-11T09:54:48;80.57;;;45.90;;
11588;SDS011;5850;51.360;12.362;2024-01-11T09:57:16;80.35;;;47.70;;
11588;SDS011;5850;51.360;12.362;2024-01-11T09:59:51;87.63;;;48.28;;
11588;SDS011;5850;51.360;12.362;2024-01-11T10:02:23;91.57;;;47.20;;
11588;SDS011;5850;51.360;12.362;2024-01-11T10:04:53;88.75;;;48.13;;
11588;SDS011;5850;51.360;12.362;2024-01-11T10:07:21;82.57;;;45.45;;
11588;SDS011;5850;51.360;12.362;2024-01-11T10:09:51;82.93;;;46.33;;
11588;SDS011;5850;51.360;12.362;2024-01-11T10:12:22;81.88;;;46.72;;
11588;SDS011;5850;51.360;12.362;2024-01-11T10:14:52;89.53;;;47.90;;
11588;SDS011;5850;51.360;12.362;2024-01-11T10:17:20;85.38;;;47.25;;
11588;SDS011;5850;51.360;12.362;2024-01-11T10:19:52;88.55;;;48.28;;
11588;SDS011;5850;51.360;12.362;2024-01-11T10:22:22;87.68;;;47.88;;
11588;SDS011;5850;51.360;12.362;2024-01-11T10:25:07;86.35;;;46.80;;
11588;SDS011;5850;51.360;12.362;2024-01-11T10:27:39;82.55;;;46.58;;
11588;SDS011;5850;51.360;12.362;2024-01-11T10:30:09;88.43;;;46.25;;
11588;SDS011;5850;51.360;12.362;2024-01-11T10:32:39;77.25;;;43.00;;
11588;SDS011;5850;51.360;12.362;2024-01-11T10:35:08;82.32;;;46.63;;
11588;SDS011;5850;51.360;12.362;2024-01-11T10:37:37;87.70;;;47.60;;
11588;SDS011;5850;51.360;12.362;2024-01-11T10:40:09;82.35;;;46.53;;
11588;SDS011;5850;51.360;12.362;2024-01-11T10:42:40;80.38;;;45.80;;
11588;SDS011;5850;51.360;12.362;2024-01-11T10:45:18;80.30;;;45.17;;
11588;SDS011;5850;51.360;12.362;2024-01-11T10:47:47;82.72;;;44.92;;
11588;SDS011;5850;51.360;12.362;2024-01-11T10:50:18;78.72;;;43.95;;
11588;SDS011;5850;51.360;12.362;2024-01-11T10:52:54;81.22;;;44.78;;
11588;SDS011;5850;51.360;12.362;2024-01-11T10:55:31;80.70;;;43.95;;
11588;SDS011;5850;51.360;12.362;2024-01-11T10:57:59;79.63;;;45.53;;
11588;SDS011;5850;51.360;12.362;2024-01-11T11:00:28;81.30;;;45.05;;
11588;SDS011;5850;51.360;12.362;2024-01-11T11:02:57;80.87;;;45.40;;
11588;SDS011;5850;51.360;12.362;2024-01-11T11:05:28;79.60;;;42.87;;
11588;SDS011;5850;51.360;12.362;2024-01-11T11:07:57;76.70;;;44.07;;
11588;SDS011;5850;51.360;12.362;2024-01-11T11:10:28;80.13;;;44.17;;
11588;SDS011;5850;51.360;12.362;2024-01-11T11:12:56;75.53;;;43.23;;
11588;SDS011;5850;51.360;12.362;2024-01-11T11:15:26;82.23;;;45.77;;
11588;SDS011;5850;51.360;12.362;2024-01-11T11:17:55;79.83;;;43.57;;
11588;SDS011;5850;51.360;12.362;2024-01-11T11:20:23;76.93;;;43.37;;
11588;SDS011;5850;51.360;12.362;2024-01-11T11:23:04;78.63;;;43.80;;
11588;SDS011;5850;51.360;12.362;2024-01-11T11:25:37;74.20;;;42.63;;
11588;SDS011;5850;51.360;12.362;2024-01-11T11:28:06;81.33;;;43.30;;
11588;SDS011;5850;51.360;12.362;2024-01-11T11:30:36;80.20;;;42.77;;
11588;SDS011;5850;51.360;12.362;2024-01-11T11:33:09;74.53;;;42.73;;
11588;SDS011;5850;51.360;12.362;2024-01-11T11:35:39;71.93;;;39.70;;
11588;SDS011;5850;51.360;12.362;2024-01-11T11:38:07;78.77;;;43.27;;
11588;SDS011;5850;51.360;12.362;2024-01-11T11:40:38;81.70;;;43.77;;
11588;SDS011;5850;51.360;12.362;2024-01-11T11:43:08;79.43;;;45.33;;
11588;SDS011;5850;51.360;12.362;2024-01-11T11:45:37;77.47;;;43.33;;
11588;SDS011;5850;51.360;12.362;2024-01-11T11:48:47;79.47;;;44.80;;
11588;SDS011;5850;51.360;12.362;2024-01-11T11:53:33;78.73;;;43.63;;
11588;SDS011;5850;51.360;12.362;2024-01-11T11:56:01;79.63;;;44.67;;
11588;SDS011;5850;51.360;12.362;2024-01-11T11:58:30;77.60;;;42.80;;
11588;SDS011;5850;51.360;12.362;2024-01-11T12:00:59;75.67;;;42.20;;
11588;SDS011;5850;51.360;12.362;2024-01-11T12:03:29;71.70;;;41.43;;
11588;SDS011;5850;51.360;12.362;2024-01-11T12:06:04;71.07;;;40.00;;
11588;SDS011;5850;51.360;12.362;2024-01-11T12:08:35;69.83;;;40.70;;
11588;SDS011;5850;51.360;12.362;2024-01-11T12:11:09;71.63;;;40.90;;
11588;SDS011;5850;51.360;12.362;2024-01-11T12:13:41;73.93;;;41.70;;
11588;SDS011;5850;51.360;12.362;2024-01-11T12:16:11;70.63;;;38.40;;
11588;SDS011;5850;51.360;12.362;2024-01-11T12:18:39;68.03;;;41.23;;
11588;SDS011;5850;51.360;12.362;2024-01-11T12:21:08;69.83;;;39.87;;
11588;SDS011;5850;51.360;12.362;2024-01-11T12:23:37;68.77;;;40.97;;
11588;SDS011;5850;51.360;12.362;2024-01-11T12:26:06;74.03;;;43.17;;
11588;SDS011;5850;51.360;12.362;2024-01-11T12:28:41;75.43;;;42.47;;
11588;SDS011;5850;51.360;12.362;2024-01-11T12:31:11;73.97;;;40.83;;
11588;SDS011;5850;51.360;12.362;2024-01-11T12:33:40;77.20;;;43.20;;
11588;SDS011;5850;51.360;12.362;2024-01-11T12:36:09;77.03;;;42.90;;
11588;SDS011;5850;51.360;12.362;2024-01-11T12:38:37;77.83;;;44.20;;
11588;SDS011;5850;51.360;12.362;2024-01-11T12:41:06;76.57;;;43.00;;
11588;SDS011;5850;51.360;12.362;2024-01-11T12:43:37;85.67;;;43.90;;
11588;SDS011;5850;51.360;12.362;2024-01-11T12:46:06;72.73;;;42.80;;
11588;SDS011;5850;51.360;12.362;2024-01-11T12:48:36;77.17;;;42.27;;
11588;SDS011;5850;51.360;12.362;2024-01-11T12:51:05;72.27;;;40.23;;
11588;SDS011;5850;51.360;12.362;2024-01-11T12:53:45;71.40;;;42.77;;
11588;SDS011;5850;51.360;12.362;2024-01-11T12:56:15;80.70;;;44.73;;
11588;SDS011;5850;51.360;12.362;2024-01-11T12:58:43;69.33;;;41.77;;
11588;SDS011;5850;51.360;12.362;2024-01-11T13:01:12;74.40;;;41.43;;
11588;SDS011;5850;51.360;12.362;2024-01-11T13:03:43;76.00;;;42.03;;
11588;SDS011;5850;51.360;12.362;2024-01-11T13:06:14;78.07;;;43.77;;
11588;SDS011;5850;51.360;12.362;2024-01-11T13:08:43;73.37;;;41.77;;
11588;SDS011;5850;51.360;12.362;2024-01-11T13:11:12;74.27;;;44.13;;
11588;SDS011;5850;51.360;12.362;2024-01-11T13:13:43;76.37;;;43.40;;
11588;SDS011;5850;51.360;12.362;2024-01-11T13:16:13;75.27;;;42.30;;
11588;SDS011;5850;51.360;12.362;2024-01-11T13:18:42;72.03;;;41.37;;
11588;SDS011;5850;51.360;12.362;2024-01-11T13:21:18;72.83;;;43.03;;
11588;SDS011;5850;51.360;12.362;2024-01-11T13:23:48;75.67;;;41.83;;
11588;SDS011;5850;51.360;12.362;2024-01-11T13:26:16;74.23;;;41.73;;
11588;SDS011;5850;51.360;12.362;2024-01-11T13:28:46;71.33;;;39.93;;
11588;SDS011;5850;51.360;12.362;2024-01-11T13:31:14;71.57;;;40.30;;
11588;SDS011;5850;51.360;12.362;2024-01-11T13:33:42;66.40;;;38.03;;
11588;SDS011;5850;51.360;12.362;2024-01-11T13:36:10;60.63;;;36.57;;
11588;SDS011;5850;51.360;12.362;2024-01-11T13:38:38;55.27;;;32.83;;
11588;SDS011;5850;51.360;12.362;2024-01-11T13:41:07;54.43;;;32.10;;
11588;SDS011;5850;51.360;12.362;2024-01-11T13:43:35;53.23;;;30.97;;
11588;SDS011;5850;51.360;12.362;2024-01-11T13:46:03;56.10;;;30.43;;
11588;SDS011;5850;51.360;12.362;2024-01-11T13:48:32;52.83;;;30.10;;
11588;SDS011;5850;51.360;12.362;2024-01-11T13:51:01;49.47;;;29.63;;
11588;SDS011;5850;51.360;12.362;2024-01-11T13:53:30;50.43;;;29.20;;
11588;SDS011;5850;51.360;12.362;2024-01-11T13:55:58;45.63;;;27.33;;
11588;SDS011;5850;51.360;12.362;2024-01-11T13:58:28;43.03;;;25.90;;
11588;SDS011;5850;51.360;12.362;2024-01-11T14:00:56;45.17;;;24.63;;
11588;SDS011;5850;51.360;12.362;2024-01-11T14:03:24;37.67;;;23.37;;
11588;SDS011;5850;51.360;12.362;2024-01-11T14:05:53;41.10;;;23.97;;
11588;SDS011;5850;51.360;12.362;2024-01-11T14:08:23;44.30;;;24.47;;
11588;SDS011;5850;51.360;12.362;2024-01-11T14:10:51;42.63;;;24.97;;
11588;SDS011;5850;51.360;12.362;2024-01-11T14:13:20;37.63;;;23.23;;
11588;SDS011;5850;51.360;12.362;2024-01-11T14:15:48;46.53;;;26.17;;
11588;SDS011;5850;51.360;12.362;2024-01-11T14:18:17;42.10;;;25.33;;
11588;SDS011;5850;51.360;12.362;2024-01-11T14:20:46;45.43;;;26.07;;
11588;SDS011;5850;51.360;12.362;2024-01-11T14:23:14;46.17;;;25.70;;
11588;SDS011;5850;51.360;12.362;2024-01-11T14:25:42;45.50;;;27.00;;
11588;SDS011;5850;51.360;12.362;2024-01-11T14:28:10;42.10;;;26.40;;
11588;SDS011;5850;51.360;12.362;2024-01-11T14:30:38;39.10;;;24.83;;
11588;SDS011;5850;51.360;12.362;2024-01-11T14:33:07;40.30;;;24.00;;
11588;SDS011;5850;51.360;12.362;2024-01-11T14:35:35;41.27;;;24.43;;